Time;durP1;ratioP1;P1;durP2;ratioP2;P2;SDS_P1;SDS_P2;PMS_P1;PMS_P2;Temp;Humidity;BMP_temperature;BMP_pressure;BME280_temperature;BME280_humidity;BME280_pressure;Samples;Min_cycle;Max_cycle;Signal;HPM_P1;HPM_P2
2022/09/28 00:01:17;;;;;;;29.10;24.07;;;;;;;14.58;78.73;99089.56;1728426;80;21085;-46
2022/09/28 00:03:45;;;;;;;30.62;23.32;;;;;;;14.60;78.58;99102.14;1725499;80;21152;-46
2022/09/28 00:06:15;;;;;;;30.68;24.02;;;;;;;14.60;78.81;99103.47;1742372;80;21020;-46
2022/09/28 00:08:41;;;;;;;29.95;23.32;;;;;;;14.58;78.98;99096.69;1756319;80;21584;-46
2022/09/28 00:11:12;;;;;;;29.87;23.55;;;;;;;14.56;79.02;99094.22;1741630;80;21052;-46
2022/09/28 00:13:40;;;;;;;31.70;24.00;;;;;;;14.56;78.92;99092.89;1760250;80;21062;-46
2022/09/28 00:16:12;;;;;;;29.82;23.20;;;;;;;14.59;78.75;99099.67;1744408;80;21138;-46
2022/09/28 00:18:39;;;;;;;31.95;24.67;;;;;;;14.63;78.75;99094.35;1746441;80;21724;-46
2022/09/28 00:21:09;;;;;;;32.93;25.50;;;;;;;14.65;78.77;99091.83;1749064;80;21518;-47
2022/09/28 00:24:11;;;;;;;35.75;25.57;;;;;;;14.63;78.83;99097.81;1746999;80;21034;-46
2022/09/28 00:26:04;;;;;;;36.23;23.62;;;;;;;14.60;78.81;99097.36;1726114;80;21073;-45
2022/09/28 00:28:31;;;;;;;29.35;22.93;;;;;;;14.59;78.70;99097.87;1742648;81;21959;-46
2022/09/28 00:30:58;;;;;;;30.57;24.18;;;;;;;14.62;78.54;99100.64;1737849;80;21369;-46
2022/09/28 00:33:25;;;;;;;29.92;23.10;;;;;;;14.63;78.42;99103.11;1752617;80;21093;-46
2022/09/28 00:35:57;;;;;;;32.50;24.20;;;;;;;14.64;78.47;99104.77;1746194;81;21042;-46
2022/09/28 00:38:28;;;;;;;36.08;25.80;;;;;;;14.61;78.50;99107.77;1746411;80;21050;-46
2022/09/28 00:40:55;;;;;;;32.65;25.02;;;;;;;14.57;78.53;99105.11;1738488;80;21308;-46
2022/09/28 00:43:22;;;;;;;32.23;23.32;;;;;;;14.55;78.51;99096.53;1744570;80;21061;-46
2022/09/28 00:45:58;;;;;;;30.60;22.45;;;;;;;14.58;78.27;99086.09;1744602;80;21054;-46
2022/09/28 00:48:27;;;;;;;29.48;23.00;;;;;;;14.59;78.23;99081.98;1702892;80;21125;-46
2022/09/28 00:50:54;;;;;;;30.40;23.65;;;;;;;14.61;78.33;99081.30;1747652;81;21054;-46
2022/09/28 00:53:23;;;;;;;31.85;24.92;;;;;;;14.60;78.44;99096.84;1749232;80;21313;-46
2022/09/28 00:55:54;;;;;;;30.23;23.10;;;;;;;14.58;78.57;99086.91;1736165;80;21121;-45
2022/09/28 00:58:24;;;;;;;29.75;22.82;;;;;;;14.57;78.51;99086.58;1745326;80;21133;-46
2022/09/28 01:00:51;;;;;;;34.23;23.90;;;;;;;14.65;78.53;99078.59;1759544;80;21073;-46
2022/09/28 01:03:18;;;;;;;33.20;24.15;;;;;;;14.73;78.31;99077.70;1737912;80;21535;-45
2022/09/28 01:05:46;;;;;;;30.70;25.02;;;;;;;14.72;78.07;99084.50;1736284;80;21120;-46
2022/09/28 01:08:13;;;;;;;32.10;23.70;;;;;;;14.65;78.11;99083.08;1760950;80;21106;-46
2022/09/28 01:10:42;;;;;;;34.83;25.08;;;;;;;14.64;78.07;99086.71;1740825;80;21113;-48
2022/09/28 01:13:10;;;;;;;28.20;22.50;;;;;;;14.66;77.92;99086.86;1745469;80;21059;-45
2022/09/28 01:15:43;;;;;;;32.13;25.02;;;;;;;14.67;77.90;99083.70;1753486;81;21369;-46
2022/09/28 01:18:34;;;;;;;32.55;25.32;;;;;;;14.65;77.87;99090.50;1745824;80;21068;-46
2022/09/28 01:21:20;;;;;;;31.33;25.32;;;;;;;14.59;77.85;99084.63;1729653;81;21058;-46
2022/09/28 01:24:11;;;;;;;33.55;25.48;;;;;;;14.53;78.06;99083.17;1731032;82;21113;-46
2022/09/28 01:26:54;;;;;;;33.38;24.27;;;;;;;14.48;77.96;99094.30;1739151;81;21057;-47
2022/09/28 01:29:35;;;;;;;33.50;25.60;;;;;;;14.46;77.93;99086.53;1728021;81;21136;-47
2022/09/28 01:32:22;;;;;;;36.40;26.45;;;;;;;14.48;78.24;99087.16;1732819;81;22220;-47
2022/09/28 01:34:59;;;;;;;35.92;26.73;;;;;;;14.47;78.29;99089.52;1721475;81;21604;-46
2022/09/28 01:37:34;;;;;;;37.15;25.65;;;;;;;14.43;78.30;99088.72;1739862;81;21121;-46
2022/09/28 01:40:02;;;;;;;33.78;25.43;;;;;;;14.41;78.37;99078.81;1729721;81;21064;-46
2022/09/28 01:42:31;;;;;;;30.15;24.12;;;;;;;14.44;78.19;99083.73;1740516;81;21018;-46
2022/09/28 01:45:03;;;;;;;32.20;24.92;;;;;;;14.44;78.24;99083.25;1723982;81;21131;-46
2022/09/28 01:47:32;;;;;;;34.90;24.95;;;;;;;14.44;78.41;99080.60;1726231;81;21017;-46
2022/09/28 01:50:12;;;;;;;32.13;25.52;;;;;;;14.43;78.67;99078.13;1741162;81;21101;-46
2022/09/28 01:53:00;;;;;;;32.45;25.10;;;;;;;14.41;78.77;99073.52;1719435;80;21141;-47
2022/09/28 01:55:40;;;;;;;34.10;26.20;;;;;;;14.41;78.71;99080.14;1728525;82;21118;-47
2022/09/28 01:58:18;;;;;;;33.00;25.20;;;;;;;14.44;78.58;99085.05;1728703;81;21150;-47
2022/09/28 02:00:48;;;;;;;36.68;25.80;;;;;;;14.44;78.83;99079.28;1720881;82;21559;-47
2022/09/28 02:03:30;;;;;;;35.52;25.12;;;;;;;14.43;78.98;99083.42;1721315;82;21026;-46
2022/09/28 02:06:17;;;;;;;31.57;24.25;;;;;;;14.37;79.06;99078.33;1701890;82;21023;-47
2022/09/28 02:08:53;;;;;;;39.38;24.43;;;;;;;14.41;79.04;99081.47;1729791;81;21070;-47
2022/09/28 02:11:22;;;;;;;33.50;25.23;;;;;;;14.46;78.88;99087.04;1748620;81;21548;-46
2022/09/28 02:14:01;;;;;;;30.75;25.27;;;;;;;14.47;78.72;99079.41;1737636;81;21069;-47
2022/09/28 02:16:46;;;;;;;36.20;25.80;;;;;;;14.47;78.74;99079.41;1719124;82;21124;-47
2022/09/28 02:19:16;;;;;;;33.10;26.40;;;;;;;14.43;78.78;99080.27;1729061;82;21144;-47
2022/09/28 02:21:49;;;;;;;31.90;25.10;;;;;;;14.39;78.93;99079.48;1715226;82;21065;-46
2022/09/28 02:24:22;;;;;;;37.65;25.35;;;;;;;14.38;78.96;99076.52;1721280;81;21138;-46
2022/09/28 02:26:49;;;;;;;32.40;24.63;;;;;;;14.43;78.91;99084.23;1709993;82;21062;-47
2022/09/28 02:29:16;;;;;;;35.15;24.75;;;;;;;14.45;78.87;99080.09;1731294;81;21081;-47
2022/09/28 02:31:43;;;;;;;31.65;24.43;;;;;;;14.47;78.89;99078.92;1735470;81;21589;-47
2022/09/28 02:34:10;;;;;;;33.02;24.72;;;;;;;14.48;79.11;99085.03;1755072;80;21066;-47
2022/09/28 02:36:37;;;;;;;32.42;24.57;;;;;;;14.49;79.12;99086.17;1751637;80;21094;-47
2022/09/28 02:39:03;;;;;;;35.23;25.23;;;;;;;14.52;78.89;99084.16;1753644;81;21011;-47
2022/09/28 02:41:51;;;;;;;32.28;24.85;;;;;;;14.54;78.61;99093.58;1759947;80;21045;-47
2022/09/28 02:45:07;;;;;;;33.67;26.70;;;;;;;14.53;78.57;99097.22;1759379;80;21141;-47
2022/09/28 02:47:54;;;;;;;38.33;27.58;;;;;;;14.51;78.57;99093.94;1764373;80;21050;-47
2022/09/28 02:50:35;;;;;;;38.20;29.37;;;;;;;14.45;78.82;99098.11;1745515;80;21613;-47
2022/09/28 02:53:22;;;;;;;32.60;25.12;;;;;;;14.37;78.93;99098.69;1735457;81;21092;-47
2022/09/28 02:56:15;;;;;;;34.50;24.12;;;;;;;14.34;78.99;99097.72;1749830;80;21017;-46
2022/09/28 02:59:05;;;;;;;34.63;25.45;;;;;;;14.36;79.05;99089.12;1727040;80;21109;-47
2022/09/28 03:01:41;;;;;;;34.05;26.30;;;;;;;14.39;78.92;99088.73;1734523;81;21098;-47
2022/09/28 03:04:36;;;;;;;32.48;24.92;;;;;;;14.37;79.01;99090.75;1736627;80;22555;-47
2022/09/28 03:07:25;;;;;;;34.70;24.67;;;;;;;14.34;79.18;99096.39;1728694;80;21304;-47
2022/09/28 03:10:10;;;;;;;30.37;23.50;;;;;;;14.31;79.39;99093.11;1745343;80;21171;-46
2022/09/28 03:12:36;;;;;;;33.73;24.50;;;;;;;14.30;79.37;99087.48;1738102;81;21612;-46
2022/09/28 03:15:15;;;;;;;33.18;25.85;;;;;;;14.34;79.11;99084.48;1724263;81;21093;-46
2022/09/28 03:17:43;;;;;;;32.53;24.25;;;;;;;14.33;79.03;99078.89;1728136;80;21144;-46
2022/09/28 03:20:10;;;;;;;33.78;25.52;;;;;;;14.31;79.21;99075.91;1715106;81;21046;-46
2022/09/28 03:22:37;;;;;;;33.28;26.07;;;;;;;14.32;79.33;99082.02;1708952;81;21593;-46
2022/09/28 03:25:06;;;;;;;33.20;24.87;;;;;;;14.30;79.42;99077.41;1712503;81;21066;-46
2022/09/28 03:27:33;;;;;;;40.55;25.95;;;;;;;14.30;79.39;99074.25;1679509;82;21096;-46
2022/09/28 03:30:00;;;;;;;35.03;25.82;;;;;;;14.34;79.16;99073.90;1718065;81;21211;-47
2022/09/28 03:32:26;;;;;;;34.40;27.05;;;;;;;14.37;79.05;99076.20;1708967;82;21026;-46
2022/09/28 03:34:53;;;;;;;34.53;25.08;;;;;;;14.38;79.04;99080.50;1732303;81;21101;-46
2022/09/28 03:37:19;;;;;;;33.67;26.17;;;;;;;14.35;79.19;99075.55;1744655;81;22252;-47
2022/09/28 03:39:46;;;;;;;30.30;24.23;;;;;;;14.32;79.37;99076.72;1730114;81;21085;-46
2022/09/28 03:42:12;;;;;;;32.63;24.80;;;;;;;14.33;79.28;99072.27;1724037;81;21252;-46
2022/09/28 03:44:42;;;;;;;34.18;25.30;;;;;;;14.34;79.08;99073.90;1719495;81;21124;-46
2022/09/28 03:47:09;;;;;;;32.45;25.62;;;;;;;14.34;78.96;99081.36;1720108;82;21114;-46
2022/09/28 03:49:36;;;;;;;31.65;26.35;;;;;;;14.30;78.96;99076.90;1728489;81;21058;-46
2022/09/28 03:52:03;;;;;;;34.73;25.45;;;;;;;14.26;79.20;99086.20;1726861;81;21030;-47
2022/09/28 03:54:29;;;;;;;32.55;25.15;;;;;;;14.22;79.39;99083.61;1726780;81;21244;-46
2022/09/28 03:56:56;;;;;;;34.63;25.37;;;;;;;14.22;79.54;99084.09;1725845;81;21140;-46
2022/09/28 03:59:22;;;;;;;32.88;24.35;;;;;;;14.28;79.51;99090.81;1720347;81;21450;-46
2022/09/28 04:01:49;;;;;;;33.67;25.43;;;;;;;14.30;79.36;99092.77;1749160;80;20990;-46
2022/09/28 04:04:16;;;;;;;32.38;26.17;;;;;;;14.33;79.54;99090.80;1751752;80;21014;-46
2022/09/28 04:06:44;;;;;;;38.48;26.10;;;;;;;14.31;79.69;99089.14;1745740;80;22059;-46
2022/09/28 04:09:11;;;;;;;32.53;24.27;;;;;;;14.31;79.74;99094.43;1744467;80;21120;-46
2022/09/28 04:11:38;;;;;;;32.65;24.47;;;;;;;14.33;79.68;99097.41;1727009;81;21065;-46
2022/09/28 04:14:05;;;;;;;34.05;23.27;;;;;;;14.38;79.45;99095.05;1741806;80;21077;-46
2022/09/28 04:16:31;;;;;;;35.58;27.32;;;;;;;14.41;79.34;99097.34;1741811;80;21077;-46
2022/09/28 04:19:00;;;;;;;33.30;24.75;;;;;;;14.42;79.27;99097.64;1714654;81;21146;-46
2022/09/28 04:21:49;;;;;;;34.88;25.15;;;;;;;14.38;79.35;99094.54;1732720;80;21057;-46
2022/09/28 04:24:19;;;;;;;33.55;24.67;;;;;;;14.36;79.40;99095.73;1727113;81;21239;-45
2022/09/28 04:26:48;;;;;;;32.28;24.25;;;;;;;14.37;79.39;99090.23;1720849;81;21069;-46
2022/09/28 04:29:15;;;;;;;33.05;24.57;;;;;;;14.40;79.18;99083.27;1726459;81;21151;-46
2022/09/28 04:31:48;;;;;;;37.95;25.45;;;;;;;14.45;79.01;99084.06;1725548;81;21792;-46
2022/09/28 04:34:20;;;;;;;32.15;24.40;;;;;;;14.44;78.93;99080.60;1701053;82;21110;-45
2022/09/28 04:36:47;;;;;;;34.70;24.87;;;;;;;14.41;79.11;99084.92;1718067;82;21528;-46
2022/09/28 04:39:16;;;;;;;34.40;25.15;;;;;;;14.39;79.22;99084.77;1748850;81;20994;-49
2022/09/28 04:41:47;;;;;;;31.70;23.32;;;;;;;14.41;79.28;99088.08;1720983;82;21517;-46
2022/09/28 04:44:13;;;;;;;31.80;23.35;;;;;;;14.46;79.11;99089.69;1738910;81;21056;-46
2022/09/28 04:46:41;;;;;;;32.15;24.77;;;;;;;14.49;78.99;99091.95;1713779;81;21002;-46
2022/09/28 04:49:26;;;;;;;36.13;25.47;;;;;;;14.47;78.94;99093.48;1722274;81;21597;-46
2022/09/28 04:51:54;;;;;;;33.15;24.85;;;;;;;14.46;79.05;99091.01;1715691;81;21117;-46
2022/09/28 04:54:21;;;;;;;33.78;25.23;;;;;;;14.44;79.02;99095.16;1747605;80;22009;-46
2022/09/28 04:56:47;;;;;;;34.18;25.65;;;;;;;14.42;78.98;99089.70;1726093;81;21099;-46
2022/09/28 04:59:14;;;;;;;33.10;23.87;;;;;;;14.46;78.87;99087.85;1733987;81;21517;-46
2022/09/28 05:01:42;;;;;;;33.80;25.08;;;;;;;14.50;78.68;99096.25;1710556;81;21012;-45
2022/09/28 05:04:27;;;;;;;31.65;24.25;;;;;;;14.49;78.77;99095.92;1705724;81;21659;-46
2022/09/28 05:06:58;;;;;;;33.88;25.70;;;;;;;14.46;78.90;99091.83;1729387;81;21035;-46
2022/09/28 05:09:25;;;;;;;34.85;23.25;;;;;;;14.45;79.05;99090.67;1714182;81;22056;-46
2022/09/28 05:11:51;;;;;;;28.27;22.67;;;;;;;14.46;79.06;99091.83;1742962;81;21054;-45
2022/09/28 05:14:21;;;;;;;33.30;24.47;;;;;;;14.52;78.86;99090.27;1715347;81;21062;-46
2022/09/28 05:16:48;;;;;;;34.98;25.17;;;;;;;14.57;78.78;99085.77;1729203;82;21046;-46
2022/09/28 05:19:26;;;;;;;35.15;26.85;;;;;;;14.61;78.80;99088.42;1720990;81;21089;-46
2022/09/28 05:21:56;;;;;;;33.18;26.90;;;;;;;14.59;78.86;99089.92;1742955;80;21133;-46
2022/09/28 05:24:23;;;;;;;33.05;23.95;;;;;;;14.58;78.86;99092.20;1739736;80;21081;-46
2022/09/28 05:26:51;;;;;;;32.60;24.18;;;;;;;14.59;78.72;99091.25;1727198;81;21519;-47
2022/09/28 05:29:19;;;;;;;32.17;23.80;;;;;;;14.65;78.52;99092.34;1742234;80;21116;-46
2022/09/28 05:31:57;;;;;;;30.97;24.12;;;;;;;14.70;78.36;99095.77;1672036;84;21097;-47
2022/09/28 05:34:40;;;;;;;33.75;25.12;;;;;;;14.75;78.47;99088.11;1742973;81;21164;-46
2022/09/28 05:37:09;;;;;;;34.43;26.05;;;;;;;14.75;78.69;99093.41;1744417;80;21049;-46
2022/09/28 05:39:36;;;;;;;31.50;23.47;;;;;;;14.76;78.87;99093.70;1727868;82;21544;-46
2022/09/28 05:42:02;;;;;;;32.08;23.90;;;;;;;14.82;78.77;99094.31;1746839;81;21524;-46
2022/09/28 05:44:31;;;;;;;32.60;23.90;;;;;;;14.87;78.43;99093.27;1727108;81;21065;-46
2022/09/28 05:46:57;;;;;;;32.38;24.63;;;;;;;14.93;78.18;99094.35;1735266;81;21129;-46
2022/09/28 05:49:24;;;;;;;30.50;22.82;;;;;;;14.97;78.17;99100.95;1739013;81;21074;-47
2022/09/28 05:51:51;;;;;;;33.15;24.72;;;;;;;14.99;78.39;99101.06;1731351;81;21093;-46
2022/09/28 05:54:17;;;;;;;34.00;22.22;;;;;;;15.02;78.05;99100.70;1696693;82;21789;-46
2022/09/28 05:56:47;;;;;;;32.17;22.58;;;;;;;15.00;77.77;99104.56;1752434;80;21141;-46
2022/09/28 05:59:14;;;;;;;31.90;23.15;;;;;;;14.99;77.35;99102.91;1750653;81;21191;-47
2022/09/28 06:01:41;;;;;;;30.75;22.82;;;;;;;15.02;76.87;99107.33;1736468;80;21252;-47
2022/09/28 06:04:10;;;;;;;33.88;24.75;;;;;;;15.06;76.86;99110.43;1747124;80;21092;-47
2022/09/28 06:06:37;;;;;;;32.40;24.20;;;;;;;15.08;77.13;99107.59;1705332;82;21111;-47
2022/09/28 06:09:04;;;;;;;29.70;22.90;;;;;;;15.11;77.14;99100.61;1726856;81;21003;-47
2022/09/28 06:11:37;;;;;;;30.43;23.92;;;;;;;15.16;76.93;99099.56;1727290;81;21176;-49
2022/09/28 06:14:12;;;;;;;29.40;23.20;;;;;;;15.22;76.66;99093.53;1729058;81;21081;-47
2022/09/28 06:16:40;;;;;;;33.02;23.32;;;;;;;15.28;76.24;99100.75;1725506;82;21070;-48
2022/09/28 06:19:08;;;;;;;27.73;23.27;;;;;;;15.30;76.17;99105.36;1719602;82;21571;-47
2022/09/28 06:21:37;;;;;;;33.45;25.77;;;;;;;15.30;75.98;99108.49;1721952;81;21279;-47
2022/09/28 06:24:04;;;;;;;31.33;24.95;;;;;;;15.30;76.01;99104.03;1717048;81;21562;-47
2022/09/28 06:26:32;;;;;;;30.68;23.65;;;;;;;15.30;76.02;99102.71;1743538;81;21057;-47
2022/09/28 06:28:59;;;;;;;28.90;23.38;;;;;;;15.33;75.91;99102.34;1726841;82;21120;-47
2022/09/28 06:31:29;;;;;;;30.00;23.15;;;;;;;15.38;75.55;99096.47;1725183;81;21063;-47
2022/09/28 06:33:54;;;;;;;29.12;22.77;;;;;;;15.44;75.33;99088.30;1734647;81;21113;-47
2022/09/28 06:36:21;;;;;;;28.95;22.35;;;;;;;15.50;75.22;99096.33;1739055;81;21175;-47
2022/09/28 06:38:49;;;;;;;27.82;20.92;;;;;;;15.49;75.09;99093.86;1741220;80;21033;-47
2022/09/28 06:41:15;;;;;;;26.97;21.80;;;;;;;15.47;75.09;99099.34;1738742;80;21101;-47
2022/09/28 06:43:44;;;;;;;27.48;20.80;;;;;;;15.47;74.62;99098.02;1743018;80;21106;-47
2022/09/28 06:46:30;;;;;;;27.05;19.80;;;;;;;15.47;74.36;99094.05;1742780;80;21493;-47
2022/09/28 06:49:16;;;;;;;25.90;19.37;;;;;;;15.56;74.36;99094.23;1741032;80;21318;-47
2022/09/28 06:52:01;;;;;;;25.50;18.62;;;;;;;15.64;74.00;99080.05;1741805;80;21104;-47
2022/09/28 06:54:32;;;;;;;21.25;17.15;;;;;;;15.64;73.76;99088.02;1739053;80;21833;-46
2022/09/28 06:57:03;;;;;;;22.80;17.75;;;;;;;15.68;73.42;99091.92;1743962;80;21067;-47
2022/09/28 06:59:30;;;;;;;23.25;18.02;;;;;;;15.74;72.99;99087.20;1726498;81;21657;-47
2022/09/28 07:01:59;;;;;;;24.80;18.35;;;;;;;15.78;72.63;99085.02;1716214;81;21231;-47
2022/09/28 07:04:43;;;;;;;20.80;17.15;;;;;;;15.86;72.57;99088.06;1739491;81;21069;-47
2022/09/28 07:07:14;;;;;;;22.00;17.95;;;;;;;15.92;72.68;99084.64;1737494;80;21047;-48
2022/09/28 07:09:44;;;;;;;22.48;17.23;;;;;;;15.95;72.52;99078.96;1704805;81;21052;-47
2022/09/28 07:12:12;;;;;;;20.02;15.85;;;;;;;16.00;72.16;99077.08;1744888;80;21065;-48
2022/09/28 07:14:56;;;;;;;19.67;14.95;;;;;;;16.04;71.58;99078.32;1731632;81;21152;-48
2022/09/28 07:17:23;;;;;;;21.02;15.72;;;;;;;16.00;70.90;99067.79;1730159;81;21423;-53
2022/09/28 07:19:54;;;;;;;20.08;14.78;;;;;;;15.99;70.67;99069.63;1745098;80;21063;-48
2022/09/28 07:22:22;;;;;;;19.30;13.85;;;;;;;16.01;70.69;99067.59;1742743;81;21049;-48
2022/09/28 07:24:50;;;;;;;19.02;14.53;;;;;;;16.02;70.61;99062.63;1742390;81;21489;-48
2022/09/28 07:27:36;;;;;;;18.57;13.98;;;;;;;16.04;70.74;99061.08;1740084;81;21199;-47
2022/09/28 07:30:17;;;;;;;21.55;15.35;;;;;;;16.07;70.20;99056.23;1731583;80;21080;-48
2022/09/28 07:32:46;;;;;;;19.30;13.15;;;;;;;16.08;70.02;99049.89;1745043;81;21035;-47
2022/09/28 07:35:24;;;;;;;17.40;13.93;;;;;;;16.12;69.80;99052.98;1745537;80;21018;-48
2022/09/28 07:38:05;;;;;;;18.40;14.53;;;;;;;16.16;69.59;99055.59;1748024;81;21106;-48
2022/09/28 07:43:20;;;;;;;19.40;15.95;;;;;;;16.25;69.76;99049.63;1745582;80;21125;-48
2022/09/28 07:45:51;;;;;;;23.25;18.30;;;;;;;16.27;69.77;99047.59;1749368;80;21093;-48
2022/09/28 07:48:19;;;;;;;21.73;17.90;;;;;;;16.28;69.94;99046.59;1736068;80;21064;-47
2022/09/28 07:50:52;;;;;;;21.90;15.95;;;;;;;16.37;70.16;99045.94;1731272;80;21509;-48
2022/09/28 07:56:07;;;;;;;20.32;15.45;;;;;;;16.79;68.75;99042.31;1782793;79;22674;-48
2022/09/28 07:58:39;;;;;;;22.50;16.40;;;;;;;16.91;67.65;99049.26;1750458;80;21066;-48
2022/09/28 08:01:10;;;;;;;24.20;17.80;;;;;;;16.95;67.26;99043.88;1743353;81;21246;-48
2022/09/28 08:03:38;;;;;;;20.68;16.70;;;;;;;17.02;67.11;99045.23;1749905;80;21595;-48
2022/09/28 08:06:08;;;;;;;26.23;19.17;;;;;;;17.06;67.08;99051.30;1749950;80;20943;-48
2022/09/28 08:08:36;;;;;;;25.20;18.70;;;;;;;17.10;66.71;99035.77;1746757;80;21059;-48
2022/09/28 08:11:05;;;;;;;23.22;16.75;;;;;;;17.22;66.13;99039.48;1750111;80;21751;-48
2022/09/28 08:13:40;;;;;;;21.25;15.75;;;;;;;17.24;65.78;99037.45;1748589;80;21517;-48
2022/09/28 08:16:15;;;;;;;21.27;16.30;;;;;;;17.20;65.54;99042.86;1749638;80;21675;-48
2022/09/28 08:18:48;;;;;;;19.77;14.10;;;;;;;17.17;64.96;99039.79;1742224;80;21525;-48
2022/09/28 08:24:00;;;;;;;16.35;12.05;;;;;;;17.04;65.10;99041.87;1751418;80;21059;-47
2022/09/28 08:26:28;;;;;;;16.17;12.25;;;;;;;17.03;65.06;99038.41;1749137;80;21464;-47
2022/09/28 08:28:55;;;;;;;15.63;12.30;;;;;;;17.14;64.68;99033.53;1740210;80;21070;-47
2022/09/28 08:31:40;;;;;;;18.48;13.68;;;;;;;17.20;64.30;99038.06;1741408;81;22286;-48
2022/09/28 08:34:12;;;;;;;18.60;13.28;;;;;;;17.20;64.00;99040.20;1727084;80;21066;-47
2022/09/28 08:36:40;;;;;;;17.25;13.18;;;;;;;17.21;64.00;99043.16;1752781;81;21410;-48
2022/09/28 08:39:11;;;;;;;17.15;13.18;;;;;;;17.20;63.98;99038.06;1730418;80;22023;-48
2022/09/28 08:41:52;;;;;;;16.65;13.18;;;;;;;17.17;64.03;99039.27;1696648;81;21109;-48
2022/09/28 08:44:44;;;;;;;15.88;10.63;;;;;;;17.17;64.14;99045.91;1743897;80;21590;-47
2022/09/28 08:50:32;;;;;;;14.20;11.55;;;;;;;17.32;63.91;99034.33;1751045;79;21000;-48
2022/09/28 08:53:17;;;;;;;14.95;12.45;;;;;;;17.49;63.60;99032.13;1751819;80;22138;-47
2022/09/28 08:55:52;;;;;;;15.75;12.10;;;;;;;17.63;63.61;99031.11;1686109;82;21477;-47
2022/09/28 08:58:23;;;;;;;14.00;10.72;;;;;;;17.78;62.87;99039.73;1734311;81;21043;-47
2022/09/28 09:00:51;;;;;;;15.00;11.75;;;;;;;17.86;62.61;99032.08;1732717;82;21113;-47
2022/09/28 09:03:32;;;;;;;16.80;11.55;;;;;;;17.97;62.30;99029.34;1727793;81;21540;-47
2022/09/28 09:06:27;;;;;;;14.83;11.00;;;;;;;18.09;61.92;99025.55;1732679;82;25832;-47
2022/09/28 09:09:22;;;;;;;14.18;10.20;;;;;;;18.18;61.18;99034.98;1722727;82;21117;-48
2022/09/28 09:12:07;;;;;;;15.28;11.18;;;;;;;18.22;60.94;99036.20;1729689;81;21129;-47
2022/09/28 09:14:55;;;;;;;15.43;10.90;;;;;;;18.27;61.59;99040.39;1713259;82;21077;-47
2022/09/28 09:17:50;;;;;;;15.48;11.63;;;;;;;18.34;60.89;99037.23;1732336;81;21038;-48
2022/09/28 09:20:42;;;;;;;16.37;12.35;;;;;;;18.44;60.25;99039.48;1720098;81;21079;-48
2022/09/28 09:23:30;;;;;;;17.10;12.45;;;;;;;18.53;60.18;99034.75;1719598;82;21104;-48
2022/09/28 09:26:06;;;;;;;13.15;11.03;;;;;;;18.64;60.23;99022.62;1693437;82;21097;-48
2022/09/28 09:28:59;;;;;;;15.72;11.93;;;;;;;18.71;59.79;99017.60;1717116;81;21076;-47
2022/09/28 09:31:56;;;;;;;16.07;12.95;;;;;;;18.77;59.88;99014.60;1710376;82;21741;-47
2022/09/28 09:34:40;;;;;;;16.32;13.08;;;;;;;18.81;59.63;99020.33;1723286;82;21227;-48
2022/09/28 09:38:01;;;;;;;16.37;13.65;;;;;;;18.85;59.27;99019.73;1723610;81;22203;-48
2022/09/28 09:40:44;;;;;;;20.02;14.20;;;;;;;18.86;59.34;99023.21;1656940;84;21077;-48
2022/09/28 09:43:57;;;;;;;19.57;13.50;;;;;;;18.77;59.33;99029.78;1578217;89;21134;-47
2022/09/28 09:46:44;;;;;;;23.32;13.80;;;;;;;18.63;59.74;99028.48;1710046;82;21654;-48
2022/09/28 09:49:56;;;;;;;17.60;12.35;;;;;;;18.51;59.90;99028.30;1732790;82;21969;-47
2022/09/28 09:52:53;;;;;;;16.80;11.60;;;;;;;18.43;59.83;99041.83;1727643;82;21528;-48
2022/09/28 09:55:39;;;;;;;19.10;12.70;;;;;;;18.44;60.31;99037.31;1737501;81;21070;-47
2022/09/28 09:58:25;;;;;;;22.25;14.60;;;;;;;18.43;60.29;99044.49;1747554;81;21038;-47
2022/09/28 10:00:54;;;;;;;18.70;12.93;;;;;;;18.39;60.81;99048.58;1752433;81;21474;-46
2022/09/28 10:03:29;;;;;;;20.77;12.70;;;;;;;18.33;61.06;99044.91;1746507;80;21129;-47
2022/09/28 10:06:03;;;;;;;22.43;14.30;;;;;;;18.30;61.02;99056.48;1754160;80;21042;-47
2022/09/28 10:08:34;;;;;;;23.92;12.90;;;;;;;18.24;60.87;99051.97;1748437;80;21094;-47
2022/09/28 10:11:12;;;;;;;20.88;13.55;;;;;;;18.16;61.02;99064.47;1736031;81;21548;-47
2022/09/28 10:13:41;;;;;;;18.35;12.90;;;;;;;18.10;61.29;99058.63;1740861;80;21128;-46
2022/09/28 10:16:10;;;;;;;18.90;11.95;;;;;;;18.05;61.05;99056.28;1751090;80;21142;-47
2022/09/28 10:18:38;;;;;;;19.87;12.55;;;;;;;18.01;61.38;99052.69;1747181;80;21074;-47
2022/09/28 10:21:24;;;;;;;22.00;13.58;;;;;;;18.01;61.19;99049.22;1751904;80;21038;-48
2022/09/28 10:23:59;;;;;;;17.05;11.20;;;;;;;17.99;61.34;99047.27;1746454;80;21563;-47
2022/09/28 10:26:38;;;;;;;17.48;11.43;;;;;;;18.01;61.68;99055.87;1752462;80;21101;-47
2022/09/28 10:29:22;;;;;;;20.45;11.22;;;;;;;18.12;61.98;99053.09;1745877;80;21089;-47
2022/09/28 10:31:54;;;;;;;16.10;11.57;;;;;;;18.18;61.79;99042.97;1749167;80;21027;-47
2022/09/28 10:34:35;;;;;;;20.02;12.78;;;;;;;18.19;61.65;99048.09;1748789;80;21549;-47
2022/09/28 10:37:05;;;;;;;18.17;11.95;;;;;;;18.23;61.95;99047.17;1747061;80;21068;-47
2022/09/28 10:39:52;;;;;;;17.10;11.08;;;;;;;18.25;61.72;99043.78;1737489;81;21059;-48
2022/09/28 10:42:31;;;;;;;16.07;11.85;;;;;;;18.26;61.62;99042.77;1751956;80;21939;-48
2022/09/28 10:45:22;;;;;;;18.70;11.90;;;;;;;18.22;61.67;99044.19;1753238;81;21052;-47
2022/09/28 10:47:48;;;;;;;16.62;11.55;;;;;;;18.20;61.73;99047.58;1748373;80;21014;-47
2022/09/28 10:50:24;;;;;;;18.60;11.65;;;;;;;18.18;61.94;99049.63;1752727;81;21068;-47
2022/09/28 10:52:53;;;;;;;14.20;10.43;;;;;;;18.19;61.99;99044.62;1749625;80;21057;-47
2022/09/28 10:55:37;;;;;;;18.15;10.88;;;;;;;18.23;62.26;99039.18;1752253;81;21209;-48
2022/09/28 10:58:26;;;;;;;15.58;10.78;;;;;;;18.31;61.99;99041.64;1701513;81;21691;-48
2022/09/28 11:00:59;;;;;;;15.10;10.80;;;;;;;18.34;61.70;99035.91;1741235;81;21513;-48
2022/09/28 11:03:28;;;;;;;16.02;11.33;;;;;;;18.32;61.44;99036.59;1749881;81;21070;-47
2022/09/28 11:06:05;;;;;;;16.90;12.33;;;;;;;18.29;61.57;99034.38;1754429;80;21049;-47
2022/09/28 11:08:41;;;;;;;14.18;11.63;;;;;;;18.28;61.42;99038.05;1748597;81;21240;-47
2022/09/28 11:11:14;;;;;;;16.80;12.70;;;;;;;18.21;61.89;99033.25;1737058;81;21100;-46
2022/09/28 11:13:52;;;;;;;18.45;12.47;;;;;;;18.13;61.89;99033.45;1753342;80;21056;-47
2022/09/28 11:16:28;;;;;;;17.00;12.70;;;;;;;18.05;62.24;99038.45;1751802;80;22252;-47
2022/09/28 11:18:59;;;;;;;17.23;13.22;;;;;;;17.98;62.54;99034.98;1748230;80;21541;-46
2022/09/28 11:21:28;;;;;;;17.48;12.95;;;;;;;17.94;62.59;99036.42;1752956;81;21839;-47
2022/09/28 11:24:06;;;;;;;15.13;12.05;;;;;;;17.96;62.69;99034.38;1755470;80;21101;-47
2022/09/28 11:26:39;;;;;;;17.20;13.08;;;;;;;18.06;62.89;99032.64;1753617;80;21046;-47
2022/09/28 11:29:20;;;;;;;20.00;13.85;;;;;;;18.20;63.12;99033.73;1753329;81;21074;-47
2022/09/28 11:31:48;;;;;;;19.07;13.93;;;;;;;18.33;63.01;99035.59;1751964;81;21123;-47
2022/09/28 11:34:27;;;;;;;18.17;13.95;;;;;;;18.48;62.97;99039.36;1754082;80;21196;-47
2022/09/28 11:37:16;;;;;;;20.15;14.80;;;;;;;18.61;62.79;99029.21;1749246;81;21096;-47
2022/09/28 11:40:27;;;;;;;16.62;13.68;;;;;;;18.72;62.29;99032.54;1750131;81;21073;-47
2022/09/28 11:43:19;;;;;;;19.45;15.23;;;;;;;18.79;61.53;99031.72;1752643;80;21064;-47
2022/09/28 11:46:03;;;;;;;22.42;14.38;;;;;;;18.84;61.64;99025.27;1722106;81;21059;-47
2022/09/28 11:48:45;;;;;;;16.80;13.65;;;;;;;18.91;61.80;99028.73;1741368;80;21516;-47
2022/09/28 11:51:19;;;;;;;16.73;13.62;;;;;;;18.99;61.37;99029.83;1753407;80;21571;-47
2022/09/28 11:53:56;;;;;;;23.05;14.73;;;;;;;19.11;61.23;99030.83;1749764;80;21086;-47
2022/09/28 11:56:37;;;;;;;18.25;13.53;;;;;;;19.24;61.00;99037.12;1749105;80;21116;-47
2022/09/28 11:59:14;;;;;;;18.32;13.85;;;;;;;19.37;60.98;99036.25;1753731;81;21543;-47
2022/09/28 12:01:57;;;;;;;18.05;13.70;;;;;;;19.43;60.75;99034.88;1751241;80;21131;-47